createdAt,value
2023-02-01T00:00:58.828Z,3.22
2023-02-01T00:04:03.550Z,3.20
2023-02-01T00:07:08.197Z,4.00
2023-02-01T00:10:13.119Z,4.35
2023-02-01T00:13:17.578Z,4.05
2023-02-01T00:16:25.768Z,2.85
2023-02-01T00:19:30.251Z,2.30
2023-02-01T00:22:35.115Z,2.83
2023-02-01T00:25:40.800Z,3.63
2023-02-01T00:28:46.286Z,2.78
2023-02-01T00:31:53.009Z,3.15
2023-02-01T00:34:57.804Z,3.28
2023-02-01T00:38:03.395Z,2.47
2023-02-01T00:41:20.423Z,3.25
2023-02-01T00:44:24.971Z,2.80
2023-02-01T00:47:31.477Z,2.85
2023-02-01T00:50:35.847Z,4.00
2023-02-01T00:53:40.792Z,2.95
2023-02-01T00:56:45.625Z,3.70
2023-02-01T00:59:50.310Z,3.08
2023-02-01T01:02:55.846Z,3.45
2023-02-01T01:06:03.512Z,3.10
2023-02-01T01:09:09.147Z,3.00
2023-02-01T01:12:13.893Z,2.95
2023-02-01T01:15:18.559Z,3.15
2023-02-01T01:18:23.205Z,3.40
2023-02-01T01:21:28.893Z,3.20
2023-02-01T01:24:33.724Z,3.22
2023-02-01T01:27:38.627Z,2.50
2023-02-01T01:30:43.599Z,3.15
2023-02-01T01:33:51.254Z,2.90
2023-02-01T01:36:55.853Z,4.97
2023-02-01T01:40:15.892Z,3.75
2023-02-01T01:43:23.584Z,2.78
2023-02-01T01:46:33.948Z,2.65
2023-02-01T01:49:39.413Z,2.72
2023-02-01T01:52:47.506Z,3.40
2023-02-01T01:55:54.656Z,3.35
2023-02-01T01:59:00.584Z,4.07
2023-02-01T02:02:05.640Z,2.60
2023-02-01T02:05:11.502Z,2.85
2023-02-01T02:08:17.867Z,2.40
2023-02-01T02:11:22.443Z,2.90
2023-02-01T02:14:28.171Z,3.20
2023-02-01T02:18:04.722Z,2.45
2023-02-01T02:21:23.818Z,3.97
2023-02-01T02:24:51.623Z,4.25
2023-02-01T02:28:14.290Z,3.13
2023-02-01T02:31:40.329Z,3.75
2023-02-01T02:35:02.568Z,2.38
2023-02-01T02:38:31.614Z,3.08
2023-02-01T02:42:01.413Z,2.45
2023-02-01T02:45:57.776Z,3.15
2023-02-01T02:49:16.240Z,3.38
2023-02-01T02:52:40.757Z,3.08
2023-02-01T02:55:46.787Z,3.10
2023-02-01T02:59:11.115Z,2.80
2023-02-01T03:02:37.108Z,3.55
2023-02-01T03:05:49.521Z,2.67
2023-02-01T03:08:58.100Z,3.65
2023-02-01T03:12:30.580Z,2.35
2023-02-01T03:16:06.764Z,2.60
2023-02-01T03:19:24.615Z,2.80
2023-02-01T03:22:32.917Z,2.58
2023-02-01T03:25:39.154Z,3.67
2023-02-01T03:28:55.761Z,2.15
2023-02-01T03:32:00.614Z,2.78
2023-02-01T03:35:05.566Z,2.50
2023-02-01T03:38:30.373Z,4.38
2023-02-01T03:41:47.631Z,2.45
2023-02-01T03:45:08.367Z,3.20
2023-02-01T03:48:15.288Z,2.67
2023-02-01T03:51:22.359Z,2.40
2023-02-01T03:54:29.170Z,2.70
2023-02-01T03:57:38.296Z,2.75
2023-02-01T04:00:58.208Z,2.75
2023-02-01T04:04:03.081Z,2.40
2023-02-01T04:07:07.893Z,2.90
2023-02-01T04:10:13.466Z,3.35
2023-02-01T04:13:18.561Z,2.72
2023-02-01T04:16:23.602Z,2.63
2023-02-01T04:19:28.250Z,2.85
2023-02-01T04:22:32.870Z,3.30
2023-02-01T04:25:37.467Z,2.22
2023-02-01T04:28:41.925Z,2.63
2023-02-01T04:31:47.387Z,3.28
2023-02-01T04:34:52.531Z,3.75
2023-02-01T04:37:56.967Z,5.03
2023-02-01T04:41:01.902Z,4.22
2023-02-01T04:44:06.333Z,3.47
2023-02-01T04:47:11.093Z,2.90
2023-02-01T04:50:16.403Z,3.20
2023-02-01T04:53:21.271Z,3.00
2023-02-01T04:56:25.772Z,3.70
2023-02-01T04:59:30.284Z,2.88
2023-02-01T05:02:35.945Z,3.28
2023-02-01T05:05:40.912Z,2.05
2023-02-01T05:08:45.599Z,3.17
2023-02-01T05:12:08.581Z,3.88
2023-02-01T05:15:13.469Z,2.75
2023-02-01T05:18:18.142Z,2.97
2023-02-01T05:21:22.839Z,2.85
2023-02-01T05:24:28.096Z,2.85
2023-02-01T05:27:32.558Z,2.55
2023-02-01T05:30:37.353Z,2.80
2023-02-01T05:33:42.228Z,2.78
2023-02-01T05:36:46.938Z,2.63
2023-02-01T05:39:51.542Z,3.08
2023-02-01T05:42:55.964Z,2.28
2023-02-01T05:46:00.995Z,3.10
2023-02-01T05:49:06.003Z,3.63
2023-02-01T05:52:10.424Z,3.67
2023-02-01T05:55:14.929Z,3.05
2023-02-01T05:58:19.604Z,2.90
2023-02-01T06:01:24.247Z,2.15
2023-02-01T06:04:28.694Z,3.78
2023-02-01T06:07:33.592Z,4.32
2023-02-01T06:10:38.309Z,3.90
2023-02-01T06:13:42.847Z,4.35
2023-02-01T06:16:47.680Z,4.20
2023-02-01T06:19:52.095Z,3.78
2023-02-01T06:22:56.943Z,3.55
2023-02-01T06:26:08.619Z,4.85
2023-02-01T06:29:14.168Z,3.35
2023-02-01T06:32:19.207Z,3.65
2023-02-01T06:35:24.085Z,3.22
2023-02-01T06:38:28.994Z,3.15
2023-02-01T06:41:35.606Z,4.18
2023-02-01T06:44:40.405Z,3.28
2023-02-01T06:47:44.982Z,3.78
2023-02-01T06:50:49.512Z,3.65
2023-02-01T06:53:54.361Z,3.22
2023-02-01T06:57:01.409Z,3.30
2023-02-01T07:00:07.162Z,3.28
2023-02-01T07:03:11.656Z,3.28
2023-02-01T07:06:16.016Z,3.78
2023-02-01T07:09:20.771Z,2.75
2023-02-01T07:12:25.693Z,3.17
2023-02-01T07:15:30.595Z,2.75
2023-02-01T07:18:35.027Z,3.08
2023-02-01T07:21:40.686Z,3.10
2023-02-01T07:24:45.137Z,3.85
2023-02-01T07:27:50.035Z,3.20
2023-02-01T07:30:54.992Z,3.40
2023-02-01T07:33:59.753Z,3.42
2023-02-01T07:37:04.449Z,4.43
2023-02-01T07:40:10.885Z,3.13
2023-02-01T07:43:15.877Z,3.30
2023-02-01T07:46:21.217Z,3.22
2023-02-01T07:49:25.859Z,4.38
2023-02-01T07:52:30.893Z,2.72
2023-02-01T07:55:39.115Z,2.78
2023-02-01T07:58:44.347Z,4.30
2023-02-01T08:01:48.973Z,3.03
2023-02-01T08:04:54.268Z,2.80
2023-02-01T08:07:59.201Z,2.17
2023-02-01T08:11:07.025Z,3.30
2023-02-01T08:14:11.655Z,3.55
2023-02-01T08:17:16.371Z,4.25
2023-02-01T08:20:25.420Z,4.10
2023-02-01T08:23:30.262Z,3.20
2023-02-01T08:26:35.501Z,4.03
2023-02-01T08:29:39.847Z,2.70
2023-02-01T08:32:44.601Z,2.72
2023-02-01T08:35:49.598Z,3.42
2023-02-01T08:38:54.737Z,2.50
2023-02-01T08:42:17.807Z,3.25
2023-02-01T08:45:26.793Z,3.00
2023-02-01T08:48:32.782Z,3.72
2023-02-01T08:51:37.752Z,2.90
2023-02-01T08:54:43.014Z,3.95
2023-02-01T08:57:47.977Z,3.65
2023-02-01T09:00:52.827Z,3.17
2023-02-01T09:03:57.543Z,3.17
2023-02-01T09:07:02.245Z,2.40
2023-02-01T09:10:07.746Z,3.05
2023-02-01T09:13:12.370Z,2.83
2023-02-01T09:16:17.062Z,2.25
2023-02-01T09:19:26.406Z,3.65
2023-02-01T09:22:31.344Z,2.95
2023-02-01T09:25:39.030Z,2.83
2023-02-01T09:28:43.819Z,3.60
2023-02-01T09:31:57.777Z,3.47
2023-02-01T09:35:08.431Z,2.78
2023-02-01T09:38:13.122Z,3.13
2023-02-01T09:41:55.527Z,3.33
2023-02-01T09:45:33.997Z,2.95
2023-02-01T09:48:43.952Z,3.10
2023-02-01T09:51:52.479Z,2.78
2023-02-01T09:55:04.238Z,3.90
2023-02-01T09:58:44.884Z,3.05
2023-02-01T10:01:49.556Z,3.03
2023-02-01T10:05:00.713Z,3.10
2023-02-01T10:08:37.321Z,2.95
2023-02-01T10:12:33.404Z,3.92
2023-02-01T10:16:03.983Z,2.83
2023-02-01T10:19:50.596Z,2.75
2023-02-01T10:23:19.582Z,3.33
2023-02-01T10:26:33.374Z,3.45
2023-02-01T10:29:46.893Z,3.53
2023-02-01T10:33:06.879Z,3.53
2023-02-01T10:36:42.636Z,3.78
2023-02-01T10:39:50.083Z,2.75
2023-02-01T10:43:01.113Z,3.05
2023-02-01T10:46:06.173Z,3.03
2023-02-01T10:49:59.177Z,4.00
2023-02-01T10:53:19.862Z,3.50
2023-02-01T10:56:28.460Z,3.28
2023-02-01T10:59:37.169Z,3.30
2023-02-01T11:02:42.156Z,3.58
2023-02-01T11:05:48.827Z,3.55
2023-02-01T11:08:56.981Z,3.60
2023-02-01T11:12:01.990Z,3.80
2023-02-01T11:15:25.878Z,3.95
2023-02-01T11:18:36.694Z,3.25
2023-02-01T11:21:46.720Z,3.85
2023-02-01T11:24:51.577Z,3.63
2023-02-01T11:27:57.678Z,3.13
2023-02-01T11:31:10.711Z,4.22
2023-02-01T11:34:28.021Z,3.92
2023-02-01T11:37:39.191Z,3.20
2023-02-01T11:40:44.106Z,3.35
2023-02-01T11:44:00.791Z,2.88
2023-02-01T11:47:31.728Z,3.35
2023-02-01T11:50:54.469Z,4.05
2023-02-01T11:55:16.383Z,4.28
2023-02-01T11:58:30.514Z,3.33
2023-02-01T12:02:01.481Z,2.90
2023-02-01T12:05:32.365Z,3.70
2023-02-01T12:08:52.464Z,4.40
2023-02-01T12:12:23.758Z,3.83
2023-02-01T12:15:48.550Z,3.88
2023-02-01T12:18:59.969Z,3.00
2023-02-01T12:22:36.119Z,3.90
2023-02-01T12:26:02.489Z,4.57
2023-02-01T12:29:16.068Z,3.80
2023-02-01T12:32:42.718Z,3.22
2023-02-01T12:36:12.373Z,5.07
2023-02-01T12:39:48.537Z,3.65
2023-02-01T12:43:22.857Z,3.58
2023-02-01T12:46:41.192Z,3.72
2023-02-01T12:50:28.160Z,3.10
2023-02-01T12:53:46.956Z,3.53
2023-02-01T12:57:04.071Z,3.10
2023-02-01T13:00:31.276Z,4.35
2023-02-01T13:03:40.786Z,2.45
2023-02-01T13:06:53.988Z,3.13
2023-02-01T13:10:12.876Z,2.40
2023-02-01T13:13:41.061Z,2.97
2023-02-01T13:16:54.240Z,2.92
2023-02-01T13:20:40.782Z,3.53
2023-02-01T13:23:49.844Z,3.17
2023-02-01T13:26:56.389Z,2.95
2023-02-01T13:30:09.675Z,3.08
2023-02-01T13:33:52.722Z,2.37
2023-02-01T13:37:22.101Z,2.40
2023-02-01T13:40:44.656Z,2.55
2023-02-01T13:43:53.971Z,2.72
2023-02-01T13:47:03.768Z,2.40
2023-02-01T13:50:25.689Z,4.15
2023-02-01T13:53:38.077Z,4.43
2023-02-01T13:56:45.293Z,3.05
2023-02-01T13:59:53.248Z,2.60
2023-02-01T14:03:03.670Z,2.42
2023-02-01T14:06:28.560Z,3.30
2023-02-01T14:09:38.097Z,2.28
2023-02-01T14:12:49.808Z,2.47
2023-02-01T14:16:03.765Z,3.30
2023-02-01T14:22:35.865Z,2.90
2023-02-01T14:25:41.201Z,2.97
2023-02-01T14:29:00.653Z,2.90
2023-02-01T14:32:23.553Z,3.65
2023-02-01T14:35:28.816Z,2.65
2023-02-01T14:38:35.308Z,3.20
2023-02-01T14:41:43.728Z,2.90
2023-02-01T14:44:58.228Z,3.22
2023-02-01T14:48:07.226Z,3.15
2023-02-01T14:51:16.254Z,2.50
2023-02-01T14:54:22.107Z,2.58
2023-02-01T14:57:29.309Z,3.00
2023-02-01T15:00:34.375Z,2.28
2023-02-01T15:04:05.896Z,3.03
2023-02-01T15:07:14.807Z,2.75
2023-02-01T15:10:22.040Z,3.38
2023-02-01T15:13:29.462Z,3.35
2023-02-01T15:16:34.478Z,2.97
2023-02-01T15:19:39.677Z,3.47
2023-02-01T15:22:55.367Z,1.95
2023-02-01T15:26:00.486Z,3.50
2023-02-01T15:29:05.134Z,2.67
2023-02-01T15:32:41.024Z,3.10
2023-02-01T15:36:13.615Z,3.20
2023-02-01T15:39:30.553Z,2.75
2023-02-01T15:42:35.905Z,1.75
2023-02-01T15:45:40.825Z,1.60
2023-02-01T15:48:51.642Z,1.25
2023-02-01T15:51:57.995Z,1.60
2023-02-01T15:55:09.003Z,1.42
2023-02-01T15:58:25.850Z,1.50
2023-02-01T16:01:30.818Z,1.55
2023-02-01T16:04:51.749Z,1.50
2023-02-01T16:08:21.454Z,1.40
2023-02-01T16:11:31.788Z,1.52
2023-02-01T16:14:36.425Z,2.47
2023-02-01T16:17:41.612Z,1.67
2023-02-01T16:20:48.792Z,1.30
2023-02-01T16:23:54.158Z,1.30
2023-02-01T16:26:59.085Z,1.42
2023-02-01T16:30:03.793Z,1.65
2023-02-01T16:33:18.819Z,1.30
2023-02-01T16:36:23.741Z,1.38
2023-02-01T16:39:28.894Z,1.85
2023-02-01T16:42:33.680Z,2.58
2023-02-01T16:45:38.363Z,2.90
2023-02-01T16:48:47.932Z,2.75
2023-02-01T16:52:00.022Z,1.83
2023-02-01T16:55:14.119Z,2.65
2023-02-01T16:58:20.050Z,3.45
2023-02-01T17:01:25.396Z,4.05
2023-02-01T17:04:30.184Z,2.65
2023-02-01T17:07:35.489Z,2.70
2023-02-01T17:10:40.195Z,2.78
2023-02-01T17:13:46.391Z,4.20
2023-02-01T17:16:52.295Z,3.85
2023-02-01T17:19:57.174Z,3.13
2023-02-01T17:23:02.113Z,2.53
2023-02-01T17:26:10.943Z,1.95
2023-02-01T17:29:15.924Z,1.35
2023-02-01T17:32:25.047Z,1.50
2023-02-01T17:35:31.263Z,1.30
2023-02-01T17:38:36.185Z,1.45
2023-02-01T17:41:40.855Z,1.08
2023-02-01T17:44:46.597Z,1.50
2023-02-01T17:47:51.106Z,1.58
2023-02-01T17:50:58.949Z,1.60
2023-02-01T17:54:03.914Z,1.58
2023-02-01T17:57:13.507Z,2.30
2023-02-01T18:00:19.869Z,2.22
2023-02-01T18:03:26.907Z,2.50
2023-02-01T18:06:36.428Z,3.00
2023-02-01T18:09:42.064Z,3.90
2023-02-01T18:12:47.150Z,2.78
2023-02-01T18:15:51.662Z,2.85
2023-02-01T18:19:05.095Z,2.85
2023-02-01T18:22:23.056Z,2.80
2023-02-01T18:25:30.832Z,2.63
2023-02-01T18:28:35.454Z,3.17
2023-02-01T18:31:47.370Z,3.17
2023-02-01T18:34:52.024Z,3.25
2023-02-01T18:37:57.821Z,3.00
2023-02-01T18:41:05.302Z,2.35
2023-02-01T18:44:18.446Z,1.90
2023-02-01T18:47:22.887Z,2.08
2023-02-01T18:50:31.125Z,1.55
2023-02-01T18:53:35.884Z,1.55
2023-02-01T18:56:40.382Z,1.63
2023-02-01T18:59:44.923Z,1.80
2023-02-01T19:02:50.312Z,1.60
2023-02-01T19:05:57.102Z,2.88
2023-02-01T19:09:01.894Z,2.05
2023-02-01T19:12:06.888Z,2.22
2023-02-01T19:15:15.872Z,1.75
2023-02-01T19:18:20.827Z,1.58
2023-02-01T19:21:25.722Z,2.30
2023-02-01T19:24:31.513Z,1.52
2023-02-01T19:27:36.064Z,1.33
2023-02-01T19:30:41.379Z,1.30
2023-02-01T19:33:46.300Z,1.13
2023-02-01T19:36:51.300Z,1.33
2023-02-01T19:39:55.857Z,1.45
2023-02-01T19:43:00.961Z,1.52
2023-02-01T19:46:05.994Z,1.67
2023-02-01T19:49:12.176Z,1.58
2023-02-01T19:52:17.652Z,1.55
2023-02-01T19:55:22.636Z,1.25
2023-02-01T19:58:27.862Z,1.55
2023-02-01T20:01:36.324Z,1.63
2023-02-01T20:04:41.456Z,1.90
2023-02-01T20:07:46.374Z,1.90
2023-02-01T20:10:51.307Z,1.80
2023-02-01T20:14:01.257Z,1.80
2023-02-01T20:17:07.455Z,2.05
2023-02-01T20:20:12.323Z,2.45
2023-02-01T20:23:18.743Z,1.75
2023-02-01T20:26:25.330Z,1.95
2023-02-01T20:29:35.142Z,1.13
2023-02-01T20:32:41.915Z,1.30
2023-02-01T20:35:46.842Z,1.10
2023-02-01T20:38:55.285Z,1.13
2023-02-01T20:42:00.401Z,1.95
2023-02-01T20:45:06.300Z,1.83
2023-02-01T20:48:12.491Z,2.40
2023-02-01T20:51:20.908Z,1.40
2023-02-01T20:54:25.873Z,1.35
2023-02-01T20:57:30.261Z,1.20
2023-02-01T21:00:35.343Z,1.00
2023-02-01T21:03:40.564Z,1.35
2023-02-01T21:06:45.319Z,1.10
2023-02-01T21:09:50.275Z,1.00
2023-02-01T21:13:04.757Z,1.75
2023-02-01T21:16:14.223Z,1.23
2023-02-01T21:19:19.540Z,1.33
2023-02-01T21:22:24.310Z,1.52
2023-02-01T21:25:29.261Z,2.08
2023-02-01T21:28:34.163Z,1.45
2023-02-01T21:31:40.290Z,2.00
2023-02-01T21:34:44.560Z,1.55
2023-02-01T21:37:49.451Z,1.83
2023-02-01T21:41:18.243Z,1.35
2023-02-01T21:44:24.391Z,1.63
2023-02-01T21:47:29.298Z,1.80
2023-02-01T21:50:35.252Z,2.00
2023-02-01T21:53:40.314Z,1.60
2023-02-01T21:56:45.643Z,2.35
2023-02-01T21:59:51.006Z,1.95
2023-02-01T22:02:55.867Z,1.80
2023-02-01T22:06:00.278Z,2.00
2023-02-01T22:09:05.952Z,2.22
2023-02-01T22:12:13.847Z,1.85
2023-02-01T22:15:18.570Z,1.88
2023-02-01T22:18:23.373Z,1.73
2023-02-01T22:21:28.378Z,2.38
2023-02-01T22:24:35.550Z,2.45
2023-02-01T22:28:32.817Z,2.17
2023-02-01T22:34:13.259Z,2.67
2023-02-01T22:37:17.672Z,2.47
2023-02-01T22:40:22.297Z,2.63
2023-02-01T22:43:27.790Z,2.97
2023-02-01T22:46:33.551Z,2.78
2023-02-01T22:49:38.227Z,2.72
2023-02-01T22:52:43.000Z,3.05
2023-02-01T22:55:47.908Z,2.53
2023-02-01T22:58:58.437Z,2.58
2023-02-01T23:02:03.244Z,2.72
2023-02-01T23:05:08.008Z,3.15
2023-02-01T23:08:12.776Z,2.60
2023-02-01T23:11:17.565Z,3.78
2023-02-01T23:14:22.262Z,4.32
2023-02-01T23:17:27.271Z,2.80
2023-02-01T23:20:32.059Z,3.53
2023-02-01T23:23:37.178Z,2.67
2023-02-01T23:26:42.546Z,1.88
2023-02-01T23:29:47.529Z,1.80
2023-02-01T23:32:52.527Z,1.70
2023-02-01T23:36:01.264Z,2.45
2023-02-01T23:39:06.604Z,3.30
2023-02-01T23:42:11.789Z,2.00
2023-02-01T23:45:16.385Z,1.85
2023-02-01T23:48:21.203Z,2.22
2023-02-01T23:51:27.148Z,2.83
2023-02-01T23:54:32.205Z,2.45
2023-02-01T23:57:37.199Z,2.53
